sensor_id;sensor_type;location;lat;lon;timestamp;pressure;altitude;pressure_sealevel;temperature;humidity
60345;BME280;46188;52.324;8.032;2023-02-22T00:01:15;100490.66;;;7.92;100.00
60345;BME280;46188;52.324;8.032;2023-02-22T00:03:50;100480.13;;;7.89;100.00
60345;BME280;46188;52.324;8.032;2023-02-22T00:06:19;100481.72;;;7.84;100.00
60345;BME280;46188;52.324;8.032;2023-02-22T00:08:47;100489.56;;;7.81;100.00
60345;BME280;46188;52.324;8.032;2023-02-22T00:11:14;100483.50;;;7.85;100.00
60345;BME280;46188;52.324;8.032;2023-02-22T00:13:39;100481.00;;;7.90;100.00
60345;BME280;46188;52.324;8.032;2023-02-22T00:16:08;100481.91;;;7.92;100.00
60345;BME280;46188;52.324;8.032;2023-02-22T00:18:37;100480.13;;;7.89;100.00
60345;BME280;46188;52.324;8.032;2023-02-22T00:21:04;100479.16;;;7.87;100.00
60345;BME280;46188;52.324;8.032;2023-02-22T00:23:35;100477.47;;;7.88;100.00
60345;BME280;46188;52.324;8.032;2023-02-22T00:26:05;100475.78;;;7.91;100.00
60345;BME280;46188;52.324;8.032;2023-02-22T00:28:35;100475.75;;;7.90;100.00
60345;BME280;46188;52.324;8.032;2023-02-22T00:31:02;100467.91;;;7.91;100.00
60345;BME280;46188;52.324;8.032;2023-02-22T00:33:29;100473.09;;;7.88;100.00
60345;BME280;46188;52.324;8.032;2023-02-22T00:35:55;100470.44;;;7.87;100.00
60345;BME280;46188;52.324;8.032;2023-02-22T00:38:21;100473.00;;;7.85;100.00
60345;BME280;46188;52.324;8.032;2023-02-22T00:40:46;100471.22;;;7.84;100.00
60345;BME280;46188;52.324;8.032;2023-02-22T00:43:12;100466.00;;;7.86;100.00
60345;BME280;46188;52.324;8.032;2023-02-22T00:45:38;100470.34;;;7.84;100.00
60345;BME280;46188;52.324;8.032;2023-02-22T00:48:05;100467.81;;;7.87;100.00
60345;BME280;46188;52.324;8.032;2023-02-22T00:50:31;100466.97;;;7.88;100.00
60345;BME280;46188;52.324;8.032;2023-02-22T00:52:58;100464.34;;;7.88;100.00
60345;BME280;46188;52.324;8.032;2023-02-22T00:55:26;100463.47;;;7.89;100.00
60345;BME280;46188;52.324;8.032;2023-02-22T00:57:53;100464.22;;;7.83;100.00
60345;BME280;46188;52.324;8.032;2023-02-22T01:00:31;100457.19;;;7.82;100.00
60345;BME280;46188;52.324;8.032;2023-02-22T01:02:58;100450.25;;;7.86;100.00
60345;BME280;46188;52.324;8.032;2023-02-22T01:05:27;100453.84;;;7.88;100.00
60345;BME280;46188;52.324;8.032;2023-02-22T01:07:53;100447.63;;;7.86;100.00
60345;BME280;46188;52.324;8.032;2023-02-22T01:10:21;100450.34;;;7.89;100.00
60345;BME280;46188;52.324;8.032;2023-02-22T01:12:47;100446.03;;;7.92;100.00
60345;BME280;46188;52.324;8.032;2023-02-22T01:15:15;100445.13;;;7.90;100.00
60345;BME280;46188;52.324;8.032;2023-02-22T01:17:41;100439.97;;;7.95;100.00
60345;BME280;46188;52.324;8.032;2023-02-22T01:20:09;100449.69;;;7.99;100.00
60345;BME280;46188;52.324;8.032;2023-02-22T01:22:38;100434.91;;;8.03;100.00
60345;BME280;46188;52.324;8.032;2023-02-22T01:25:03;100435.75;;;8.02;100.00
60345;BME280;46188;52.324;8.032;2023-02-22T01:27:32;100434.72;;;7.95;100.00
60345;BME280;46188;52.324;8.032;2023-02-22T01:29:57;100434.81;;;8.00;100.00
60345;BME280;46188;52.324;8.032;2023-02-22T01:32:23;100430.31;;;7.94;100.00
60345;BME280;46188;52.324;8.032;2023-02-22T01:34:48;100422.47;;;7.95;100.00
60345;BME280;46188;52.324;8.032;2023-02-22T01:37:16;100413.75;;;7.97;100.00
60345;BME280;46188;52.324;8.032;2023-02-22T01:39:42;100422.44;;;7.94;100.00
60345;BME280;46188;52.324;8.032;2023-02-22T01:42:07;100419.75;;;7.91;100.00
60345;BME280;46188;52.324;8.032;2023-02-22T01:44:35;100413.66;;;7.92;100.00
60345;BME280;46188;52.324;8.032;2023-02-22T01:47:03;100404.03;;;7.92;100.00
60345;BME280;46188;52.324;8.032;2023-02-22T01:49:43;100404.94;;;7.93;100.00
60345;BME280;46188;52.324;8.032;2023-02-22T01:52:14;100398.75;;;7.91;100.00
60345;BME280;46188;52.324;8.032;2023-02-22T01:54:45;100397.72;;;7.83;100.00
60345;BME280;46188;52.324;8.032;2023-02-22T01:57:17;100392.38;;;7.78;100.00
60345;BME280;46188;52.324;8.032;2023-02-22T01:59:48;100389.84;;;7.81;100.00
60345;BME280;46188;52.324;8.032;2023-02-22T02:02:15;100384.59;;;7.81;100.00
60345;BME280;46188;52.324;8.032;2023-02-22T02:04:41;100386.34;;;7.82;100.00
60345;BME280;46188;52.324;8.032;2023-02-22T02:07:09;100383.56;;;7.76;100.00
60345;BME280;46188;52.324;8.032;2023-02-22T02:12:01;100371.44;;;7.80;100.00
60345;BME280;46188;52.324;8.032;2023-02-22T02:14:30;100378.31;;;7.76;100.00
60345;BME280;46188;52.324;8.032;2023-02-22T02:16:59;100371.38;;;7.76;100.00
60345;BME280;46188;52.324;8.032;2023-02-22T02:20:12;100369.63;;;7.77;100.00
60345;BME280;46188;52.324;8.032;2023-02-22T02:22:56;100367.75;;;7.71;100.00
60345;BME280;46188;52.324;8.032;2023-02-22T02:36:15;100356.16;;;7.60;100.00
60345;BME280;46188;52.324;8.032;2023-02-22T02:38:54;100356.94;;;7.57;100.00
60345;BME280;46188;52.324;8.032;2023-02-22T02:41:26;100362.13;;;7.54;100.00
60345;BME280;46188;52.324;8.032;2023-02-22T02:43:59;100352.63;;;7.58;100.00
60345;BME280;46188;52.324;8.032;2023-02-22T02:46:46;100345.66;;;7.60;100.00
60345;BME280;46188;52.324;8.032;2023-02-22T02:49:23;100347.38;;;7.60;100.00
60345;BME280;46188;52.324;8.032;2023-02-22T02:51:51;100343.00;;;7.58;100.00
60345;BME280;46188;52.324;8.032;2023-02-22T02:54:18;100335.91;;;7.54;100.00
60345;BME280;46188;52.324;8.032;2023-02-22T02:56:45;100336.56;;;7.44;100.00
60345;BME280;46188;52.324;8.032;2023-02-22T02:59:37;100334.41;;;7.26;100.00
60345;BME280;46188;52.324;8.032;2023-02-22T03:15:47;100318.63;;;6.83;100.00
60345;BME280;46188;52.324;8.032;2023-02-22T03:23:40;100311.31;;;6.72;100.00
60345;BME280;46188;52.324;8.032;2023-02-22T03:26:19;100309.56;;;6.71;100.00
60345;BME280;46188;52.324;8.032;2023-02-22T03:28:50;100310.38;;;6.68;100.00
60345;BME280;46188;52.324;8.032;2023-02-22T03:31:25;100309.25;;;6.58;100.00
60345;BME280;46188;52.324;8.032;2023-02-22T03:33:56;100311.84;;;6.57;100.00
60345;BME280;46188;52.324;8.032;2023-02-22T03:36:28;100309.22;;;6.57;100.00
60345;BME280;46188;52.324;8.032;2023-02-22T03:38:57;100311.81;;;6.55;100.00
60345;BME280;46188;52.324;8.032;2023-02-22T03:41:24;100303.19;;;6.59;100.00
60345;BME280;46188;52.324;8.032;2023-02-22T03:44:02;100308.66;;;6.69;100.00
60345;BME280;46188;52.324;8.032;2023-02-22T03:46:29;100302.78;;;6.79;100.00
60345;BME280;46188;52.324;8.032;2023-02-22T03:49:02;100302.06;;;6.86;100.00
60345;BME280;46188;52.324;8.032;2023-02-22T03:51:29;100305.72;;;6.93;100.00
60345;BME280;46188;52.324;8.032;2023-02-22T03:53:55;100299.75;;;7.00;100.00
60345;BME280;46188;52.324;8.032;2023-02-22T03:56:25;100301.72;;;7.09;100.00
60345;BME280;46188;52.324;8.032;2023-02-22T03:58:52;100300.00;;;7.11;100.00
60345;BME280;46188;52.324;8.032;2023-02-22T04:01:18;100304.53;;;7.18;100.00
60345;BME280;46188;52.324;8.032;2023-02-22T04:03:44;100301.06;;;7.19;100.00
60345;BME280;46188;52.324;8.032;2023-02-22T04:06:10;100297.56;;;7.18;100.00
60345;BME280;46188;52.324;8.032;2023-02-22T04:08:36;100287.84;;;7.14;100.00
60345;BME280;46188;52.324;8.032;2023-02-22T04:11:01;100293.97;;;7.15;100.00
60345;BME280;46188;52.324;8.032;2023-02-22T04:13:27;100294.09;;;7.21;100.00
60345;BME280;46188;52.324;8.032;2023-02-22T04:15:53;100284.63;;;7.28;100.00
60345;BME280;46188;52.324;8.032;2023-02-22T04:18:18;100286.50;;;7.32;100.00
60345;BME280;46188;52.324;8.032;2023-02-22T04:20:44;100284.63;;;7.28;100.00
60345;BME280;46188;52.324;8.032;2023-02-22T04:23:10;100288.25;;;7.33;100.00
60345;BME280;46188;52.324;8.032;2023-02-22T04:25:36;100278.56;;;7.29;100.00
60345;BME280;46188;52.324;8.032;2023-02-22T04:28:01;100278.59;;;7.30;100.00
60345;BME280;46188;52.324;8.032;2023-02-22T04:30:27;100289.19;;;7.35;100.00
60345;BME280;46188;52.324;8.032;2023-02-22T04:32:54;100283.06;;;7.36;100.00
60345;BME280;46188;52.324;8.032;2023-02-22T04:35:20;100277.78;;;7.34;100.00
60345;BME280;46188;52.324;8.032;2023-02-22T04:37:46;100270.69;;;7.29;100.00
60345;BME280;46188;52.324;8.032;2023-02-22T04:40:11;100268.09;;;7.30;100.00
60345;BME280;46188;52.324;8.032;2023-02-22T04:42:37;100269.06;;;7.35;100.00
60345;BME280;46188;52.324;8.032;2023-02-22T04:45:05;100263.03;;;7.39;100.00
60345;BME280;46188;52.324;8.032;2023-02-22T04:47:32;100269.97;;;7.37;100.00
60345;BME280;46188;52.324;8.032;2023-02-22T04:49:58;100266.41;;;7.34;100.00
60345;BME280;46188;52.324;8.032;2023-02-22T04:52:25;100263.53;;;7.20;100.00
60345;BME280;46188;52.324;8.032;2023-02-22T04:54:51;100260.59;;;7.06;100.00
60345;BME280;46188;52.324;8.032;2023-02-22T04:57:17;100266.91;;;7.16;100.00
60345;BME280;46188;52.324;8.032;2023-02-22T04:59:42;100261.75;;;7.19;100.00
60345;BME280;46188;52.324;8.032;2023-02-22T05:02:08;100263.53;;;7.20;100.00
60345;BME280;46188;52.324;8.032;2023-02-22T05:04:33;100262.72;;;7.24;100.00
60345;BME280;46188;52.324;8.032;2023-02-22T05:06:58;100258.38;;;7.26;100.00
60345;BME280;46188;52.324;8.032;2023-02-22T05:09:24;100253.16;;;7.28;100.00
60345;BME280;46188;52.324;8.032;2023-02-22T05:11:49;100258.38;;;7.26;100.00
60345;BME280;46188;52.324;8.032;2023-02-22T05:14:15;100263.56;;;7.23;100.00
60345;BME280;46188;52.324;8.032;2023-02-22T05:16:40;100250.34;;;7.17;100.00
60345;BME280;46188;52.324;8.032;2023-02-22T05:19:06;100251.13;;;7.13;100.00
60345;BME280;46188;52.324;8.032;2023-02-22T05:21:31;100253.66;;;7.10;100.00
60345;BME280;46188;52.324;8.032;2023-02-22T05:23:56;100248.50;;;7.13;100.00
60345;BME280;46188;52.324;8.032;2023-02-22T05:26:22;100252.06;;;7.16;100.00
60345;BME280;46188;52.324;8.032;2023-02-22T05:28:48;100254.81;;;7.23;100.00
60345;BME280;46188;52.324;8.032;2023-02-22T05:31:13;100252.03;;;7.15;100.00
60345;BME280;46188;52.324;8.032;2023-02-22T05:33:39;100251.03;;;7.10;100.00
60345;BME280;46188;52.324;8.032;2023-02-22T05:36:05;100251.84;;;7.06;100.00
60345;BME280;46188;52.324;8.032;2023-02-22T05:38:32;100248.34;;;7.05;100.00
60345;BME280;46188;52.324;8.032;2023-02-22T05:40:58;100244.00;;;7.07;100.00
60345;BME280;46188;52.324;8.032;2023-02-22T05:43:23;100237.06;;;7.09;100.00
60345;BME280;46188;52.324;8.032;2023-02-22T05:45:49;100241.53;;;7.15;100.00
60345;BME280;46188;52.324;8.032;2023-02-22T05:48:14;100239.78;;;7.14;100.00
60345;BME280;46188;52.324;8.032;2023-02-22T05:50:40;100237.19;;;7.15;100.00
60345;BME280;46188;52.324;8.032;2023-02-22T05:53:05;100236.97;;;7.05;100.00
60345;BME280;46188;52.324;8.032;2023-02-22T05:55:31;100235.28;;;7.08;100.00
60345;BME280;46188;52.324;8.032;2023-02-22T05:57:57;100237.88;;;7.05;100.00
60345;BME280;46188;52.324;8.032;2023-02-22T06:00:26;100233.22;;;6.93;100.00
60345;BME280;46188;52.324;8.032;2023-02-22T06:02:55;100230.56;;;6.92;100.00
60345;BME280;46188;52.324;8.032;2023-02-22T06:05:21;100230.53;;;6.89;100.00
60345;BME280;46188;52.324;8.032;2023-02-22T06:07:47;100229.81;;;6.97;100.00
60345;BME280;46188;52.324;8.032;2023-02-22T06:10:12;100230.63;;;6.95;100.00
60345;BME280;46188;52.324;8.032;2023-02-22T06:12:38;100239.16;;;6.84;100.00
60345;BME280;46188;52.324;8.032;2023-02-22T06:15:04;100237.41;;;6.85;100.00
60345;BME280;46188;52.324;8.032;2023-02-22T06:17:29;100236.56;;;6.86;100.00
60345;BME280;46188;52.324;8.032;2023-02-22T06:19:55;100237.63;;;6.94;100.00
60345;BME280;46188;52.324;8.032;2023-02-22T06:22:21;100243.69;;;6.93;100.00
60345;BME280;46188;52.324;8.032;2023-02-22T06:24:46;100231.41;;;6.89;100.00
60345;BME280;46188;52.324;8.032;2023-02-22T06:27:12;100240.66;;;6.75;100.00
60345;BME280;46188;52.324;8.032;2023-02-22T06:29:37;100239.00;;;6.78;100.00
60345;BME280;46188;52.324;8.032;2023-02-22T06:32:03;100233.72;;;6.77;100.00
60345;BME280;46188;52.324;8.032;2023-02-22T06:34:28;100233.09;;;6.87;100.00
60345;BME280;46188;52.324;8.032;2023-02-22T06:36:54;100239.25;;;6.89;100.00
60345;BME280;46188;52.324;8.032;2023-02-22T06:39:19;100241.06;;;6.93;100.00
60345;BME280;46188;52.324;8.032;2023-02-22T06:41:46;100239.94;;;6.80;100.00
60345;BME280;46188;52.324;8.032;2023-02-22T06:44:14;100237.47;;;6.88;100.00
60345;BME280;46188;52.324;8.032;2023-02-22T06:46:46;100243.56;;;6.86;100.00
60345;BME280;46188;52.324;8.032;2023-02-22T06:49:12;100231.34;;;6.88;100.00
60345;BME280;46188;52.324;8.032;2023-02-22T06:51:38;100241.06;;;6.93;100.00
60345;BME280;46188;52.324;8.032;2023-02-22T06:54:03;100237.47;;;6.88;100.00
60345;BME280;46188;52.324;8.032;2023-02-22T06:56:30;100240.16;;;6.91;100.00
60345;BME280;46188;52.324;8.032;2023-02-22T06:58:55;100240.16;;;6.91;100.00
60345;BME280;46188;52.324;8.032;2023-02-22T07:01:21;100236.56;;;6.86;100.00
60345;BME280;46188;52.324;8.032;2023-02-22T07:03:48;100240.03;;;6.85;100.00
60345;BME280;46188;52.324;8.032;2023-02-22T07:06:13;100239.47;;;7.00;100.00
60345;BME280;46188;52.324;8.032;2023-02-22T07:08:38;100247.34;;;6.98;100.00
60345;BME280;46188;52.324;8.032;2023-02-22T07:11:04;100237.66;;;6.96;100.00
60345;BME280;46188;52.324;8.032;2023-02-22T07:13:29;100233.44;;;7.02;100.00
60345;BME280;46188;52.324;8.032;2023-02-22T07:15:55;100239.66;;;7.08;100.00
60345;BME280;46188;52.324;8.032;2023-02-22T07:18:20;100228.91;;;6.95;100.00
60345;BME280;46188;52.324;8.032;2023-02-22T07:20:46;100229.00;;;6.98;100.00
60345;BME280;46188;52.324;8.032;2023-02-22T07:23:15;100216.91;;;7.05;100.00
60345;BME280;46188;52.324;8.032;2023-02-22T07:25:41;100227.94;;;6.90;100.00
60345;BME280;46188;52.324;8.032;2023-02-22T07:28:06;100228.63;;;6.83;100.00
60345;BME280;46188;52.324;8.032;2023-02-22T07:30:32;100237.47;;;6.88;100.00
60345;BME280;46188;52.324;8.032;2023-02-22T07:33:06;100232.78;;;6.73;100.00
60345;BME280;46188;52.324;8.032;2023-02-22T07:35:43;100232.88;;;6.78;100.00
60345;BME280;46188;52.324;8.032;2023-02-22T07:38:11;100231.53;;;6.95;100.00
60345;BME280;46188;52.324;8.032;2023-02-22T07:40:38;100232.53;;;7.00;100.00
60345;BME280;46188;52.324;8.032;2023-02-22T07:43:12;100223.38;;;6.83;100.00
60345;BME280;46188;52.324;8.032;2023-02-22T07:45:38;100226.00;;;6.83;100.00
60345;BME280;46188;52.324;8.032;2023-02-22T07:48:04;100227.00;;;6.88;100.00
60345;BME280;46188;52.324;8.032;2023-02-22T07:50:31;100222.81;;;6.96;100.00
60345;BME280;46188;52.324;8.032;2023-02-22T07:52:59;100220.25;;;6.99;100.00
60345;BME280;46188;52.324;8.032;2023-02-22T07:55:26;100216.13;;;7.11;100.00
60345;BME280;46188;52.324;8.032;2023-02-22T07:57:56;100212.50;;;7.04;100.00
60345;BME280;46188;52.324;8.032;2023-02-22T08:00:27;100218.88;;;7.17;100.00
60345;BME280;46188;52.324;8.032;2023-02-22T08:02:53;100215.16;;;7.06;100.00
60345;BME280;46188;52.324;8.032;2023-02-22T08:05:20;100215.09;;;7.02;100.00
60345;BME280;46188;52.324;8.032;2023-02-22T08:07:47;100214.31;;;7.08;100.00
60345;BME280;46188;52.324;8.032;2023-02-22T08:10:15;100211.16;;;7.25;100.00
60345;BME280;46188;52.324;8.032;2023-02-22T08:12:41;100220.16;;;7.37;100.00
60345;BME280;46188;52.324;8.032;2023-02-22T08:15:12;100212.22;;;7.34;100.00
60345;BME280;46188;52.324;8.032;2023-02-22T08:17:39;100212.28;;;7.37;100.00
60345;BME280;46188;52.324;8.032;2023-02-22T08:20:04;100213.44;;;7.50;100.00
60345;BME280;46188;52.324;8.032;2023-02-22T08:22:30;100206.34;;;7.46;100.00
60345;BME280;46188;52.324;8.032;2023-02-22T08:24:55;100208.63;;;7.29;100.00
60345;BME280;46188;52.324;8.032;2023-02-22T08:27:23;100217.44;;;7.33;100.00
60345;BME280;46188;52.324;8.032;2023-02-22T08:29:49;100205.97;;;7.28;100.00
60345;BME280;46188;52.324;8.032;2023-02-22T08:32:15;100207.56;;;7.19;100.00
60345;BME280;46188;52.324;8.032;2023-02-22T08:34:41;100200.84;;;7.32;100.00
60345;BME280;46188;52.324;8.032;2023-02-22T08:37:07;100200.66;;;7.25;100.00
60345;BME280;46188;52.324;8.032;2023-02-22T08:39:32;100201.75;;;7.34;100.00
60345;BME280;46188;52.324;8.032;2023-02-22T08:41:58;100201.06;;;7.43;100.00
60345;BME280;46188;52.324;8.032;2023-02-22T08:44:23;100198.81;;;7.63;100.00
60345;BME280;46188;52.324;8.032;2023-02-22T08:46:48;100193.22;;;7.93;100.00
60345;BME280;46188;52.324;8.032;2023-02-22T08:49:15;100196.78;;;7.99;100.00
60345;BME280;46188;52.324;8.032;2023-02-22T08:51:41;100197.91;;;8.11;100.00
60345;BME280;46188;52.324;8.032;2023-02-22T08:54:06;100194.69;;;8.29;100.00
60345;BME280;46188;52.324;8.032;2023-02-22T08:56:32;100197.47;;;8.40;100.00
60345;BME280;46188;52.324;8.032;2023-02-22T08:58:58;100195.41;;;8.19;100.00
60345;BME280;46188;52.324;8.032;2023-02-22T09:01:23;100194.78;;;8.37;100.00
60345;BME280;46188;52.324;8.032;2023-02-22T09:03:49;100185.13;;;8.35;100.00
60345;BME280;46188;52.324;8.032;2023-02-22T09:06:15;100190.53;;;8.44;100.00
60345;BME280;46188;52.324;8.032;2023-02-22T09:08:41;100187.53;;;8.76;100.00
60345;BME280;46188;52.324;8.032;2023-02-22T09:11:06;100184.72;;;8.65;100.00
60345;BME280;46188;52.324;8.032;2023-02-22T09:13:31;100188.53;;;8.85;100.00
60345;BME280;46188;52.324;8.032;2023-02-22T09:15:57;100183.91;;;8.67;100.00
60345;BME280;46188;52.324;8.032;2023-02-22T09:18:22;100186.78;;;8.86;100.00
60345;BME280;46188;52.324;8.032;2023-02-22T09:20:48;100182.75;;;9.14;100.00
60345;BME280;46188;52.324;8.032;2023-02-22T09:23:13;100177.63;;;9.27;100.00
60345;BME280;46188;52.324;8.032;2023-02-22T09:25:39;100174.06;;;9.23;100.00
60345;BME280;46188;52.324;8.032;2023-02-22T09:28:05;100169.88;;;9.39;100.00
60345;BME280;46188;52.324;8.032;2023-02-22T09:30:32;100166.63;;;9.62;100.00
60345;BME280;46188;52.324;8.032;2023-02-22T09:33:10;100153.59;;;9.78;100.00
60345;BME280;46188;52.324;8.032;2023-02-22T09:35:39;100156.41;;;9.97;100.00
60345;BME280;46188;52.324;8.032;2023-02-22T09:38:11;100148.00;;;10.43;100.00
60345;BME280;46188;52.324;8.032;2023-02-22T09:41:05;100153.44;;;10.75;100.00
60345;BME280;46188;52.324;8.032;2023-02-22T09:43:49;100152.69;;;11.01;100.00
60345;BME280;46188;52.324;8.032;2023-02-22T09:46:32;100146.53;;;11.02;100.00
60345;BME280;46188;52.324;8.032;2023-02-22T09:51:51;100135.16;;;11.12;100.00
60345;BME280;46188;52.324;8.032;2023-02-22T09:54:38;100139.50;;;11.10;100.00
60345;BME280;46188;52.324;8.032;2023-02-22T09:57:09;100143.88;;;10.94;100.00
60345;BME280;46188;52.324;8.032;2023-02-22T09:59:44;100141.13;;;10.69;100.00
60345;BME280;46188;52.324;8.032;2023-02-22T10:02:30;100141.97;;;10.65;100.00
60345;BME280;46188;52.324;8.032;2023-02-22T10:05:05;100139.34;;;10.68;100.00
60345;BME280;46188;52.324;8.032;2023-02-22T10:07:43;100134.88;;;10.55;100.00
60345;BME280;46188;52.324;8.032;2023-02-22T10:10:16;100133.28;;;10.85;100.00
60345;BME280;46188;52.324;8.032;2023-02-22T10:13:06;100135.06;;;10.97;100.00
60345;BME280;46188;52.324;8.032;2023-02-22T10:15:54;100127.97;;;10.74;100.00
60345;BME280;46188;52.324;8.032;2023-02-22T10:26:44;100137.84;;;11.38;100.00
60345;BME280;46188;52.324;8.032;2023-02-22T10:31:44;100136.09;;;11.47;100.00
60345;BME280;46188;52.324;8.032;2023-02-22T10:34:15;100134.34;;;11.52;100.00
60345;BME280;46188;52.324;8.032;2023-02-22T10:36:46;100135.25;;;11.51;100.00
60345;BME280;46188;52.324;8.032;2023-02-22T10:39:33;100131.69;;;11.27;100.00
60345;BME280;46188;52.324;8.032;2023-02-22T10:42:06;100132.56;;;11.29;100.00
60345;BME280;46188;52.324;8.032;2023-02-22T10:44:37;100129.94;;;11.32;100.00
60345;BME280;46188;52.324;8.032;2023-02-22T10:47:13;100137.78;;;11.20;100.00
60345;BME280;46188;52.324;8.032;2023-02-22T10:50:05;100131.66;;;11.22;100.00
60345;BME280;46188;52.324;8.032;2023-02-22T10:52:32;100126.38;;;11.24;100.00
60345;BME280;46188;52.324;8.032;2023-02-22T10:55:00;100130.69;;;11.03;100.00
60345;BME280;46188;52.324;8.032;2023-02-22T10:57:34;100125.41;;;10.94;100.00
60345;BME280;46188;52.324;8.032;2023-02-22T11:03:17;100113.16;;;11.18;100.00
60345;BME280;46188;52.324;8.032;2023-02-22T11:05:44;100107.94;;;11.41;100.00
60345;BME280;46188;52.324;8.032;2023-02-22T11:08:29;100119.34;;;11.35;100.00
60345;BME280;46188;52.324;8.032;2023-02-22T11:11:00;100115.88;;;11.53;100.00
60345;BME280;46188;52.324;8.032;2023-02-22T11:13:37;100117.63;;;11.68;100.00
60345;BME280;46188;52.324;8.032;2023-02-22T11:16:30;100115.00;;;11.54;100.00
60345;BME280;46188;52.324;8.032;2023-02-22T11:19:44;100114.09;;;11.58;100.00
60345;BME280;46188;52.324;8.032;2023-02-22T11:22:09;100110.59;;;11.53;100.00
60345;BME280;46188;52.324;8.032;2023-02-22T11:24:53;100110.63;;;11.66;100.00
60345;BME280;46188;52.324;8.032;2023-02-22T11:27:32;100108.84;;;11.85;100.00
60345;BME280;46188;52.324;8.032;2023-02-22T11:30:20;100105.31;;;12.18;100.00
60345;BME280;46188;52.324;8.032;2023-02-22T11:32:55;100097.41;;;12.33;100.00
60345;BME280;46188;52.324;8.032;2023-02-22T11:38:09;100095.59;;;12.43;100.00
60345;BME280;46188;52.324;8.032;2023-02-22T11:40:34;100091.19;;;12.48;100.00
60345;BME280;46188;52.324;8.032;2023-02-22T11:43:15;100079.69;;;12.60;100.00
60345;BME280;46188;52.324;8.032;2023-02-22T11:46:03;100077.88;;;12.70;100.00
60345;BME280;46188;52.324;8.032;2023-02-22T11:48:37;100071.66;;;12.79;100.00
60345;BME280;46188;52.324;8.032;2023-02-22T11:54:13;100054.66;;;13.29;100.00
60345;BME280;46188;52.324;8.032;2023-02-22T11:56:50;100050.22;;;13.37;100.00
60345;BME280;46188;52.324;8.032;2023-02-22T12:00:20;100045.81;;;13.33;100.00
60345;BME280;46188;52.324;8.032;2023-02-22T12:08:38;100037.84;;;13.32;100.00
60345;BME280;46188;52.324;8.032;2023-02-22T12:16:18;100040.00;;;12.68;100.00
60345;BME280;46188;52.324;8.032;2023-02-22T12:21:40;100031.97;;;12.86;100.00
60345;BME280;46188;52.324;8.032;2023-02-22T12:24:17;100033.63;;;13.03;100.00
60345;BME280;46188;52.324;8.032;2023-02-22T12:26:54;100028.34;;;13.06;100.00
60345;BME280;46188;52.324;8.032;2023-02-22T12:29:33;100030.84;;;13.26;100.00
60345;BME280;46188;52.324;8.032;2023-02-22T12:32:16;100023.69;;;13.40;100.00
60345;BME280;46188;52.324;8.032;2023-02-22T12:34:47;100027.16;;;13.48;100.00
60345;BME280;46188;52.324;8.032;2023-02-22T12:37:42;100027.22;;;13.42;100.00
60345;BME280;46188;52.324;8.032;2023-02-22T12:43:20;100025.69;;;14.10;100.00
60345;BME280;46188;52.324;8.032;2023-02-22T12:45:53;100023.78;;;14.26;100.00
60345;BME280;46188;52.324;8.032;2023-02-22T12:59:52;100013.56;;;13.90;86.75
60345;BME280;46188;52.324;8.032;2023-02-22T13:02:52;100019.63;;;14.00;81.36
60345;BME280;46188;52.324;8.032;2023-02-22T13:05:21;100016.97;;;13.98;82.60
60345;BME280;46188;52.324;8.032;2023-02-22T13:11:03;100014.19;;;14.15;77.21
60345;BME280;46188;52.324;8.032;2023-02-22T13:13:52;100014.94;;;14.28;77.72
60345;BME280;46188;52.324;8.032;2023-02-22T13:21:48;99999.59;;;13.71;74.49
60345;BME280;46188;52.324;8.032;2023-02-22T13:26:52;100002.47;;;13.46;75.42
60345;BME280;46188;52.324;8.032;2023-02-22T13:29:41;100005.84;;;13.67;77.44
60345;BME280;46188;52.324;8.032;2023-02-22T13:37:57;99996.78;;;13.88;76.49
60345;BME280;46188;52.324;8.032;2023-02-22T13:53:54;99993.44;;;13.69;73.80
60345;BME280;46188;52.324;8.032;2023-02-22T13:56:22;99993.41;;;13.75;74.00
60345;BME280;46188;52.324;8.032;2023-02-22T13:58:51;99989.06;;;13.63;74.24
60345;BME280;46188;52.324;8.032;2023-02-22T14:01:43;99990.75;;;13.74;74.07
60345;BME280;46188;52.324;8.032;2023-02-22T14:06:58;99984.66;;;13.64;72.82
60345;BME280;46188;52.324;8.032;2023-02-22T14:09:47;99983.88;;;13.54;73.50
60345;BME280;46188;52.324;8.032;2023-02-22T14:17:35;99975.00;;;13.55;73.37
60345;BME280;46188;52.324;8.032;2023-02-22T14:20:25;99984.78;;;13.48;72.12
60345;BME280;46188;52.324;8.032;2023-02-22T14:22:55;99986.53;;;13.51;72.49
60345;BME280;46188;52.324;8.032;2023-02-22T14:25:36;99982.97;;;13.54;72.38
60345;BME280;46188;52.324;8.032;2023-02-22T14:28:06;99977.63;;;13.60;73.07
60345;BME280;46188;52.324;8.032;2023-02-22T14:30:41;99981.28;;;13.45;73.17
60345;BME280;46188;52.324;8.032;2023-02-22T14:36:10;99972.53;;;13.37;71.90
60345;BME280;46188;52.324;8.032;2023-02-22T14:38:35;99978.72;;;13.37;72.40
60345;BME280;46188;52.324;8.032;2023-02-22T14:41:02;99970.03;;;13.14;68.83
60345;BME280;46188;52.324;8.032;2023-02-22T14:43:28;99973.56;;;13.16;70.78
60345;BME280;46188;52.324;8.032;2023-02-22T14:45:55;99969.06;;;13.24;70.75
60345;BME280;46188;52.324;8.032;2023-02-22T14:48:31;99969.06;;;13.27;70.61
60345;BME280;46188;52.324;8.032;2023-02-22T14:51:28;99967.28;;;13.32;70.88
60345;BME280;46188;52.324;8.032;2023-02-22T14:54:18;99976.03;;;13.39;70.74
60345;BME280;46188;52.324;8.032;2023-02-22T14:56:54;99981.34;;;13.39;71.10
60345;BME280;46188;52.324;8.032;2023-02-22T14:59:26;99976.00;;;13.43;72.15
60345;BME280;46188;52.324;8.032;2023-02-22T15:02:11;99971.69;;;13.28;72.07
60345;BME280;46188;52.324;8.032;2023-02-22T15:04:37;99975.28;;;13.21;72.44
60345;BME280;46188;52.324;8.032;2023-02-22T15:07:26;99968.22;;;13.20;73.20
60345;BME280;46188;52.324;8.032;2023-02-22T15:10:04;99970.22;;;12.87;73.33
60345;BME280;46188;52.324;8.032;2023-02-22T15:12:30;99966.66;;;12.98;74.00